Nearby METAR Reports

 

PAEN - Kenai, Alaska, USA
Distance from station: ESE 2mi, 4km
Updated: Sun, 17-Jan-2021 9:53am AKST
Overcast
Overcast
 Wind from NNE
Wind: NNE 8 mph , 13 km/h
Temperature: 36°F , 2°C
Wind Chill: 30°F , -1°C
Dew Point: 30°F , -1°C
Humidity: 81%
Barometer: 29.47 inHg , 998 hPa
Clouds: Overcast
Visibility: 10 miles , 16 km
Cloud details: Partly cloudy 7500 ft
Overcast 10000 ft
2021/01/17 18:53 PAEN 171853Z 02007KT 10SM SCT075 OVC100 02/M01 A2947 RMK AO2 SLP981 T00171011
PASX - Soldotna, Alaska, USA
Distance from station: SE 12mi, 19km
Updated: Sun, 17-Jan-2021 9:56am AKST
Few Clouds
Few Clouds
 Wind from calm
Wind: Calm
Temperature: 32°F , 0°C
Dew Point: 28°F , -2°C
Humidity: 87%
Barometer: 29.49 inHg , 998.6 hPa
Clouds: Few Clouds
Visibility: 10 miles , 16 km
Cloud details: Few Clouds 8000 ft
2021/01/17 18:56 PASX 171856Z AUTO 00000KT 10SM FEW080 00/M02 A2949 RMK AO2 SLP997 T00001022 FZRANO
 
PANC - Anchorage Intl, Alaska, USA
Distance from station: NE 59mi, 96km
Updated: Sun, 17-Jan-2021 9:53am AKST
Mostly cloudy
Mostly cloudy
 Wind from calm
Wind: Calm
Temperature: 30°F , -1°C
Dew Point: 25°F , -4°C
Humidity: 80%
Barometer: 29.48 inHg , 998.3 hPa
Clouds: Mostly cloudy
Visibility: 10 miles , 16 km
Cloud details: Few Clouds 5500 ft
Mostly cloudy 6500 ft
Mostly cloudy 10000 ft
2021/01/17 18:53 PANC 171853Z 00000KT 10SM FEW055 BKN065 BKN100 M01/M04 A2948 RMK AO2 SLP985 P0000 T10061044
PALH - Anchorage/Lake H, Alaska, USA
Distance from station: NE 61mi, 99km
Updated: Sun, 17-Jan-2021 9:53am AKST
Overcast
Overcast
 Wind from calm
Wind: Calm
Temperature: 30°F , -1°C
Dew Point: 25°F , -4°C
Humidity: 80%
Barometer: 29.50 inHg , 999 hPa
Clouds: Overcast
Visibility: 10 miles , 16 km
Cloud details: Few Clouds 7000 ft
Mostly cloudy 9500 ft
Overcast 11000 ft
2021/01/17 18:53 PALH 171853Z 00000KT 10SM FEW070 BKN095 OVC110 M01/M04 A2950 RMK AO2 UPB15E29 SLP989 P0000 T10111039
 
PAHO - Homer, Alaska, USA
Distance from station: S 66mi, 106km
Updated: Sun, 17-Jan-2021 9:53am AKST
Overcast
Overcast
 Wind from calm
Wind: Calm
Temperature: 36°F , 2°C
Dew Point: 34°F , 1°C
Humidity: 93%
Barometer: 29.45 inHg , 997.3 hPa
Clouds: Overcast
Visibility: 10 miles , 16 km
Cloud details: Overcast 4100 ft
2021/01/17 18:53 PAHO 171853Z 00000KT 10SM OVC041 02/01 A2945 RMK AO2 SLP973 T00220011
PAMR - Anchorage/Merril, Alaska, USA
Distance from station: NE 66mi, 106km
Updated: Sun, 17-Jan-2021 9:53am AKST
Overcast
Overcast
 Wind from calm
Wind: Calm
Temperature: 30°F , -1°C
Dew Point: 21°F , -6°C
Humidity: 69%
Barometer: 29.48 inHg , 998.3 hPa
Clouds: Overcast
Visibility: 10 miles , 16 km
Cloud details: Overcast 9500 ft
2021/01/17 18:53 PAMR 171853Z 00000KT 10SM OVC095 M01/M06 A2948 RMK AO2 SLP985 T10111056 $
 
PAED - Elmendorf Afb, Alaska, USA
Distance from station: NE 69mi, 110km
Updated: Sun, 17-Jan-2021 9:56am AKST
Mostly cloudy
Mostly cloudy
 Wind from calm
Wind: Calm
Temperature: 32°F , 0°C
Dew Point: 25°F , -4°C
Humidity: 75%
Barometer: 29.48 inHg , 998.3 hPa
Clouds: Mostly cloudy
Visibility: 10 miles , 16 km
Cloud details: Few Clouds 7000 ft
Mostly cloudy 10000 ft
Mostly cloudy 12000 ft
2021/01/17 18:56 PAED 171856Z 00000KT 10SM FEW070 BKN100 BKN120 00/M04 A2948 RMK AO2A SLP980 T00001044 $
PAWD - Seward, Alaska, USA
Distance from station: ESE 71mi, 115km
Updated: Sun, 17-Jan-2021 10:36am AKST
Light rain, Mist, Overcast
Light rain, Mist, Overcast
 Wind from calm
Wind: Calm
Temperature: 36°F , 2°C
Dew Point: 34°F , 1°C
Humidity: 93%
Barometer: 29.54 inHg , 1000.3 hPa
Summary: Light rain, Mist
Clouds: Overcast
Visibility: 2 1/2 miles , 4 km
Cloud details: Partly cloudy 1000 ft
Mostly cloudy 1800 ft
Overcast 2400 ft
2021/01/17 19:36 PAWD 171936Z AUTO 00000KT 2 1/2SM -RA BR SCT010 BKN018 OVC024 02/01 A2954 RMK AO2 P0006 T00170011 TSNO
 
PASC - Deadhorse, Alaska, USA
Distance from station: ENE 670mi, 1078km
Updated: Sun, 17-Jan-2021 9:53am AKST
Mist, Mostly cloudy
Mist, Mostly cloudy
 Wind from NE
Wind: NE 7 mph , 11 km/h
Temperature: -9°F , -23°C
Wind Chill: -24°F , -31°C
Dew Point: -15°F , -26°C
Humidity: 77%
Barometer: 29.85 inHg , 1010.8 hPa
Summary: Mist
Clouds: Mostly cloudy
Visibility: 4 miles , 6 km
Cloud details: Mostly cloudy 1600 ft
2021/01/17 18:53 PASC 171853Z 05006KT 4SM BR BKN016 M23/M26 A2985 RMK AO2 SLP112 T12281256 $
PAAD - Point Thomson, Alaska, USA
Distance from station: ENE 680mi, 1094km
Updated: Sun, 17-Jan-2021 10:35am AKST
Mist, Overcast
Mist, Overcast
 Wind from E
Wind: E 9 mph , 15 km/h
Temperature: -8°F , -22°C
Wind Chill: -25°F , -32°C
Dew Point: -11°F , -24°C
Humidity: 84%
Barometer: 29.85 inHg , 1010.8 hPa
Summary: Mist
Clouds: Overcast
Visibility: 4 miles , 6 km
Cloud details: Overcast 700 ft
2021/01/17 19:35 PAAD 171935Z AUTO 10008KT 4SM BR OVC007 M22/M24 A2985 RMK AO2 T12241244


kenaipeople.com website

Dans Automotive

Lower Peninsula Power Sports

Freddies RoadHouse

Alaska Weather Net